Time;durP1;ratioP1;P1;durP2;ratioP2;P2;SDS_P1;SDS_P2;PMS_P1;PMS_P2;Temp;Humidity;BMP_temperature;BMP_pressure;BME280_temperature;BME280_humidity;BME280_pressure;Samples;Min_cycle;Max_cycle;Signal;HPM_P1;HPM_P2
2022/05/14 00:00:25;;;;;;;5.70;2.58;;;10.40;99.90;;;;;;6244065;23;20183;-71
2022/05/14 00:02:52;;;;;;;3.45;2.65;;;10.30;99.90;;;;;;6244451;23;20177;-71
2022/05/14 00:05:21;;;;;;;5.63;2.35;;;10.40;99.90;;;;;;6244714;23;20176;-71
2022/05/14 00:07:50;;;;;;;2.60;2.40;;;10.40;99.90;;;;;;6244037;23;20188;-71
2022/05/14 00:10:21;;;;;;;5.05;2.70;;;10.40;99.90;;;;;;6243515;23;20231;-71
2022/05/14 00:13:05;;;;;;;2.78;2.47;;;10.30;99.90;;;;;;6244629;23;20164;-71
2022/05/14 00:15:34;;;;;;;3.78;2.60;;;10.30;99.90;;;;;;6244118;23;20528;-71
2022/05/14 00:18:01;;;;;;;3.55;2.40;;;10.30;99.90;;;;;;6243357;23;20188;-71
2022/05/14 00:20:28;;;;;;;3.08;2.58;;;10.40;99.90;;;;;;6244126;23;20569;-71
2022/05/14 00:22:55;;;;;;;3.75;2.53;;;10.40;99.90;;;;;;6244714;23;20173;-71
2022/05/14 00:25:24;;;;;;;4.45;2.90;;;10.40;99.90;;;;;;6244258;23;20177;-70
2022/05/14 00:27:51;;;;;;;2.75;2.38;;;10.40;99.90;;;;;;6243794;23;20502;-71
2022/05/14 00:30:19;;;;;;;3.15;2.30;;;10.40;99.90;;;;;;6243185;23;20188;-71
2022/05/14 00:32:47;;;;;;;3.20;2.58;;;10.40;99.90;;;;;;6244266;23;20176;-71
2022/05/14 00:35:14;;;;;;;4.78;3.08;;;10.30;99.90;;;;;;6244292;23;20703;-71
2022/05/14 00:37:41;;;;;;;7.13;2.40;;;10.30;99.90;;;;;;6243697;23;20189;-71
2022/05/14 00:40:13;;;;;;;4.68;2.78;;;10.30;99.90;;;;;;6243443;23;20251;-71
2022/05/14 00:42:41;;;;;;;4.07;2.40;;;10.20;99.90;;;;;;6243885;23;20161;-70
2022/05/14 00:45:08;;;;;;;3.15;2.30;;;10.20;99.90;;;;;;6243938;23;20172;-71
2022/05/14 00:47:38;;;;;;;4.88;2.92;;;10.10;99.90;;;;;;6244317;23;20173;-71
2022/05/14 00:50:07;;;;;;;3.03;2.38;;;10.10;99.90;;;;;;6242969;23;20201;-71
2022/05/14 00:52:34;;;;;;;3.10;1.83;;;10.00;99.90;;;;;;6244187;23;20510;-70
2022/05/14 00:55:03;;;;;;;2.15;1.95;;;10.00;99.90;;;;;;6243749;23;20180;-71
2022/05/14 00:57:36;;;;;;;2.28;1.90;;;10.00;99.90;;;;;;6243503;23;20649;-71
2022/05/14 01:00:09;;;;;;;2.30;2.10;;;10.00;99.90;;;;;;6243390;23;20649;-71
2022/05/14 01:02:36;;;;;;;3.42;2.38;;;10.00;99.90;;;;;;6243925;23;20166;-71
2022/05/14 01:05:03;;;;;;;2.05;1.95;;;9.90;99.90;;;;;;6243942;23;20173;-71
2022/05/14 01:07:31;;;;;;;3.78;2.00;;;9.90;99.90;;;;;;6243202;23;20180;-71
2022/05/14 01:10:03;;;;;;;2.10;2.00;;;9.90;99.90;;;;;;6242659;23;20541;-71
2022/05/14 01:12:32;;;;;;;3.45;2.30;;;9.90;99.90;;;;;;6243272;23;20163;-71
2022/05/14 01:15:11;;;;;;;2.65;2.30;;;10.00;99.90;;;;;;6243827;23;20172;-71
2022/05/14 01:17:38;;;;;;;2.58;2.10;;;10.00;99.90;;;;;;6243872;23;20156;-71
2022/05/14 01:20:05;;;;;;;4.97;2.45;;;10.00;99.90;;;;;;6242334;23;20192;-71
2022/05/14 01:22:47;;;;;;;2.40;1.80;;;9.90;99.90;;;;;;6243745;23;20172;-71
2022/05/14 01:28:06;;;;;;;4.45;2.35;;;9.80;99.90;;;;;;6242514;23;20223;-71
2022/05/14 01:30:33;;;;;;;3.60;1.80;;;9.80;99.90;;;;;;6243458;23;20192;-70
2022/05/14 01:33:06;;;;;;;3.45;1.80;;;9.70;99.90;;;;;;6243642;23;20173;-71
2022/05/14 01:35:33;;;;;;;2.10;1.90;;;9.70;99.90;;;;;;6243337;23;20164;-70
2022/05/14 01:38:01;;;;;;;2.65;2.03;;;9.70;99.90;;;;;;6242473;23;20172;-71
2022/05/14 01:40:28;;;;;;;2.65;1.75;;;9.70;99.90;;;;;;6243814;23;20280;-71
2022/05/14 01:42:55;;;;;;;2.05;1.85;;;9.60;99.90;;;;;;6242980;23;20641;-71
2022/05/14 01:45:23;;;;;;;2.38;1.80;;;9.60;99.90;;;;;;6243484;23;20180;-71
2022/05/14 01:47:50;;;;;;;2.10;1.90;;;9.60;99.90;;;;;;6243285;23;20176;-70
2022/05/14 01:50:16;;;;;;;2.45;1.80;;;9.50;99.90;;;;;;6242623;23;20289;-71
2022/05/14 01:52:43;;;;;;;3.70;2.50;;;9.50;99.90;;;;;;6243163;23;20660;-72
2022/05/14 01:55:10;;;;;;;2.53;2.00;;;9.50;99.90;;;;;;6243097;23;20176;-70
2022/05/14 01:57:37;;;;;;;3.88;2.00;;;9.40;99.90;;;;;;6242959;23;20176;-71
2022/05/14 02:00:05;;;;;;;4.70;2.22;;;9.40;99.90;;;;;;6242492;23;20573;-71
2022/05/14 02:02:33;;;;;;;6.28;2.15;;;9.40;99.90;;;;;;6243083;23;20181;-71
2022/05/14 02:05:00;;;;;;;3.75;1.73;;;9.40;99.90;;;;;;6243327;23;20294;-71
2022/05/14 02:07:27;;;;;;;2.55;1.90;;;9.40;99.90;;;;;;6242932;23;20192;-71
2022/05/14 02:09:54;;;;;;;5.15;1.92;;;9.30;99.90;;;;;;6243007;23;20192;-71
2022/05/14 02:12:21;;;;;;;3.35;2.17;;;9.30;99.90;;;;;;6243012;23;20200;-71
2022/05/14 02:14:48;;;;;;;4.18;2.30;;;9.30;99.90;;;;;;6243525;23;20183;-71
2022/05/14 02:17:14;;;;;;;7.22;2.30;;;9.20;99.90;;;;;;6243350;23;20555;-71
2022/05/14 02:19:42;;;;;;;3.33;1.98;;;9.20;99.90;;;;;;6241894;23;20207;-71
2022/05/14 02:22:09;;;;;;;2.17;1.98;;;9.20;99.90;;;;;;6242986;23;20180;-71
2022/05/14 02:24:37;;;;;;;3.95;2.60;;;9.10;99.90;;;;;;6243103;23;20552;-70
2022/05/14 02:27:05;;;;;;;5.15;2.20;;;9.10;99.90;;;;;;6242734;23;20183;-71
2022/05/14 02:29:50;;;;;;;3.95;2.33;;;9.10;99.90;;;;;;6242352;23;20200;-71
2022/05/14 02:32:17;;;;;;;5.22;2.13;;;9.00;99.90;;;;;;6243333;23;20189;-71
2022/05/14 02:34:45;;;;;;;4.00;2.67;;;9.00;99.90;;;;;;6243173;23;20183;-72
2022/05/14 02:37:12;;;;;;;3.35;2.28;;;9.00;99.90;;;;;;6243143;23;20188;-72
2022/05/14 02:39:39;;;;;;;3.58;2.40;;;8.90;99.90;;;;;;6242398;23;20199;-71
2022/05/14 02:42:06;;;;;;;2.15;1.95;;;8.90;99.90;;;;;;6242538;23;20172;-71
2022/05/14 02:44:32;;;;;;;4.47;2.33;;;8.90;99.90;;;;;;6243230;23;20176;-71
2022/05/14 02:46:59;;;;;;;2.40;2.03;;;8.90;99.90;;;;;;6242944;23;20183;-72
2022/05/14 02:49:26;;;;;;;6.28;2.33;;;8.90;99.90;;;;;;6241881;23;20529;-71
2022/05/14 02:51:54;;;;;;;3.30;2.38;;;8.90;99.90;;;;;;6242519;23;20673;-70
2022/05/14 02:54:21;;;;;;;3.13;2.80;;;8.90;99.90;;;;;;6243202;23;20177;-71
2022/05/14 02:56:47;;;;;;;5.38;2.53;;;9.00;99.90;;;;;;6242678;23;20181;-72
2022/05/14 02:59:15;;;;;;;3.28;2.22;;;9.00;99.90;;;;;;6241757;23;20728;-71
2022/05/14 03:01:48;;;;;;;2.88;2.10;;;8.90;99.90;;;;;;6243272;23;20186;-71
2022/05/14 03:04:15;;;;;;;2.90;1.90;;;8.90;99.90;;;;;;6242856;23;20475;-72
2022/05/14 03:06:42;;;;;;;4.45;2.40;;;8.90;99.90;;;;;;6242974;23;20177;-72
2022/05/14 03:09:11;;;;;;;3.15;2.05;;;8.80;99.90;;;;;;6241607;23;20711;-70
2022/05/14 03:11:39;;;;;;;4.50;2.30;;;8.70;99.90;;;;;;6242634;23;20192;-71
2022/05/14 03:14:06;;;;;;;3.35;2.53;;;8.60;99.90;;;;;;6242945;23;20475;-71
2022/05/14 03:16:32;;;;;;;3.08;2.40;;;8.60;99.90;;;;;;6242982;23;20173;-71
2022/05/14 03:18:59;;;;;;;3.90;2.90;;;8.60;99.90;;;;;;6241715;23;20197;-71
2022/05/14 03:21:26;;;;;;;3.17;2.88;;;8.50;99.90;;;;;;6242961;23;20179;-70
2022/05/14 03:23:53;;;;;;;4.95;2.00;;;8.50;99.90;;;;;;6242931;23;20263;-71
2022/05/14 03:26:21;;;;;;;3.03;2.75;;;8.50;99.90;;;;;;6242810;23;20271;-71
2022/05/14 03:28:48;;;;;;;4.75;2.90;;;8.40;99.90;;;;;;6242123;23;20527;-72
2022/05/14 03:31:15;;;;;;;3.13;2.60;;;8.40;99.90;;;;;;6243164;23;20199;-72
2022/05/14 03:33:42;;;;;;;4.15;2.83;;;8.40;99.90;;;;;;6244622;23;20180;-71
2022/05/14 03:36:09;;;;;;;4.35;2.40;;;8.40;99.90;;;;;;6244979;23;20504;-71
2022/05/14 03:38:36;;;;;;;2.90;2.08;;;8.40;99.90;;;;;;6244193;23;20526;-71
2022/05/14 03:41:03;;;;;;;6.22;2.40;;;8.40;99.90;;;;;;6245131;23;20525;-71
2022/05/14 03:43:31;;;;;;;3.40;2.70;;;8.40;99.90;;;;;;6244921;23;20195;-71
2022/05/14 03:45:58;;;;;;;7.38;2.50;;;8.40;99.90;;;;;;6244665;23;20177;-71
2022/05/14 03:48:25;;;;;;;4.38;2.85;;;8.40;99.90;;;;;;6244160;23;20192;-71
2022/05/14 03:50:53;;;;;;;2.70;2.45;;;8.40;99.90;;;;;;6244154;23;20188;-70
2022/05/14 03:53:20;;;;;;;2.67;2.10;;;8.40;99.90;;;;;;6244675;23;20180;-71
2022/05/14 03:55:46;;;;;;;2.90;2.33;;;8.40;99.90;;;;;;6244413;23;20195;-71
2022/05/14 03:58:13;;;;;;;3.58;2.60;;;8.40;99.90;;;;;;6243749;23;20203;-71
2022/05/14 04:00:41;;;;;;;2.45;2.25;;;8.30;99.90;;;;;;6244535;23;20176;-71
2022/05/14 04:03:08;;;;;;;2.65;2.10;;;8.30;99.90;;;;;;6244590;23;20180;-71
2022/05/14 04:05:35;;;;;;;5.30;2.58;;;8.30;99.90;;;;;;6244227;23;20646;-71
2022/05/14 04:08:01;;;;;;;3.60;2.67;;;8.30;99.90;;;;;;6243144;23;20196;-71
2022/05/14 04:10:29;;;;;;;5.93;3.20;;;8.30;99.90;;;;;;6244882;23;20511;-71
2022/05/14 04:12:57;;;;;;;4.03;2.70;;;8.30;99.90;;;;;;6244379;23;20192;-71
2022/05/14 04:15:24;;;;;;;2.78;2.53;;;8.20;99.90;;;;;;6244472;23;20176;-71
2022/05/14 04:17:52;;;;;;;4.32;3.20;;;8.30;99.90;;;;;;6244441;23;20173;-71
2022/05/14 04:20:19;;;;;;;3.35;2.53;;;8.40;99.90;;;;;;6244016;23;20179;-71
2022/05/14 04:22:46;;;;;;;2.80;2.60;;;8.40;99.90;;;;;;6244323;23;20168;-70
2022/05/14 04:25:13;;;;;;;2.40;2.20;;;8.40;99.90;;;;;;6244164;23;20179;-71
2022/05/14 04:27:41;;;;;;;2.65;2.40;;;8.40;99.90;;;;;;6244436;23;20172;-71
2022/05/14 04:30:10;;;;;;;2.30;2.10;;;8.40;99.90;;;;;;6243200;23;20773;-71
2022/05/14 04:32:37;;;;;;;5.07;2.67;;;8.50;99.90;;;;;;6243942;23;20681;-70
2022/05/14 04:35:07;;;;;;;3.33;2.63;;;8.50;99.90;;;;;;6244053;23;20173;-71
2022/05/14 04:37:35;;;;;;;3.47;2.20;;;8.50;99.90;;;;;;6244320;23;20509;-71
2022/05/14 04:40:01;;;;;;;4.03;2.90;;;8.60;99.90;;;;;;6243338;23;20193;-71
2022/05/14 04:42:28;;;;;;;2.85;2.60;;;8.70;99.90;;;;;;6243846;23;20172;-71
2022/05/14 04:44:55;;;;;;;2.70;2.50;;;8.80;99.90;;;;;;6243821;23;20180;-71
2022/05/14 04:47:21;;;;;;;3.85;2.80;;;8.80;99.90;;;;;;6244061;23;20172;-71
2022/05/14 04:49:49;;;;;;;2.50;2.20;;;8.90;99.90;;;;;;6243445;23;20205;-71
2022/05/14 04:52:18;;;;;;;3.70;2.50;;;9.00;99.90;;;;;;6243733;23;20196;-70
2022/05/14 04:54:45;;;;;;;2.45;2.25;;;9.00;99.90;;;;;;6244272;23;20184;-71
2022/05/14 04:57:11;;;;;;;5.75;2.88;;;9.10;99.90;;;;;;6243797;23;20184;-71
2022/05/14 04:59:38;;;;;;;4.22;2.55;;;9.20;99.90;;;;;;6243285;23;20192;-72
2022/05/14 05:04:49;;;;;;;4.25;2.70;;;9.40;99.90;;;;;;6253824;23;20155;-71
2022/05/14 05:09:45;;;;;;;3.90;2.55;;;9.60;99.90;;;;;;6242783;23;20188;-71
2022/05/14 05:12:12;;;;;;;4.05;3.00;;;9.70;99.90;;;;;;6242932;23;20200;-71
2022/05/14 05:14:41;;;;;;;4.15;2.45;;;9.70;99.90;;;;;;6244108;23;20520;-71
2022/05/14 05:17:08;;;;;;;3.10;2.75;;;9.80;99.90;;;;;;6244081;23;20177;-72
2022/05/14 05:19:34;;;;;;;3.15;2.20;;;9.90;99.90;;;;;;6243391;23;20193;-72
2022/05/14 05:22:01;;;;;;;6.28;2.75;;;10.00;99.90;;;;;;6243659;23;20172;-71
2022/05/14 05:24:28;;;;;;;3.63;2.85;;;10.10;99.90;;;;;;6243880;23;20552;-71
2022/05/14 05:26:56;;;;;;;5.45;2.90;;;10.10;99.90;;;;;;6243227;23;20328;-72
2022/05/14 05:29:23;;;;;;;6.45;2.65;;;10.20;99.90;;;;;;6243345;23;20201;-72
2022/05/14 05:31:49;;;;;;;3.28;2.55;;;10.40;99.90;;;;;;6243598;23;20192;-72
2022/05/14 05:34:16;;;;;;;3.15;2.70;;;10.50;99.90;;;;;;6243975;23;20184;-72
2022/05/14 05:36:43;;;;;;;2.60;2.40;;;10.60;99.90;;;;;;6243808;23;20183;-72
2022/05/14 05:39:10;;;;;;;3.00;2.75;;;10.70;99.90;;;;;;6242988;23;20681;-72
2022/05/14 05:41:37;;;;;;;4.35;2.25;;;10.90;99.90;;;;;;6243730;23;20180;-72
2022/05/14 05:44:06;;;;;;;4.18;2.38;;;11.00;99.90;;;;;;6243884;23;20528;-72
2022/05/14 05:46:33;;;;;;;3.45;3.00;;;11.20;99.90;;;;;;6243833;23;20180;-72
2022/05/14 05:49:00;;;;;;;2.90;2.13;;;11.40;99.90;;;;;;6242532;23;20200;-72
2022/05/14 05:51:27;;;;;;;4.95;2.60;;;11.50;99.90;;;;;;6243141;23;20698;-72
2022/05/14 05:56:47;;;;;;;5.40;2.47;;;11.80;99.90;;;;;;6243760;23;20191;-72
2022/05/14 05:59:16;;;;;;;3.85;2.28;;;12.00;99.90;;;;;;6243127;23;20200;-72
2022/05/14 06:01:44;;;;;;;2.80;2.00;;;12.10;99.90;;;;;;6244097;23;20168;-73
2022/05/14 06:04:11;;;;;;;3.03;2.20;;;12.20;99.90;;;;;;6243632;23;20180;-72
2022/05/14 06:06:41;;;;;;;2.00;1.80;;;12.40;99.90;;;;;;6243945;23;20518;-72
2022/05/14 06:09:07;;;;;;;2.67;1.97;;;12.50;99.90;;;;;;6242083;22;20775;-71
2022/05/14 06:11:34;;;;;;;2.28;2.00;;;12.70;99.90;;;;;;6243403;23;20451;-72
2022/05/14 06:14:01;;;;;;;3.10;1.90;;;12.80;99.90;;;;;;6243495;23;20180;-72
2022/05/14 06:16:29;;;;;;;2.13;1.87;;;12.90;99.90;;;;;;6242460;23;20415;-72
2022/05/14 06:18:56;;;;;;;2.50;1.70;;;13.00;99.90;;;;;;6242306;23;20439;-72
2022/05/14 06:21:23;;;;;;;2.67;1.70;;;13.20;99.90;;;;;;6243099;23;20423;-72
2022/05/14 06:23:50;;;;;;;3.60;2.30;;;13.30;99.90;;;;;;6243442;23;20473;-72
2022/05/14 06:26:16;;;;;;;2.37;1.90;;;13.40;99.90;;;;;;6242825;23;20916;-72
2022/05/14 06:28:43;;;;;;;4.00;1.83;;;13.50;99.90;;;;;;6242769;23;20439;-72
2022/05/14 06:31:10;;;;;;;3.10;1.83;;;13.60;99.90;;;;;;6243543;23;20419;-72
2022/05/14 06:33:38;;;;;;;3.37;2.00;;;13.80;99.90;;;;;;6243362;23;20450;-71
2022/05/14 06:36:05;;;;;;;2.40;1.53;;;13.90;99.90;;;;;;6243092;23;20419;-72
2022/05/14 06:38:33;;;;;;;5.73;1.93;;;14.10;99.90;;;;;;6242472;23;20738;-72
2022/05/14 06:41:05;;;;;;;3.20;1.70;;;14.10;99.90;;;;;;6243294;23;20423;-72
2022/05/14 06:43:32;;;;;;;3.10;1.63;;;14.30;99.90;;;;;;6243051;23;20406;-72
2022/05/14 06:45:58;;;;;;;1.97;1.77;;;14.40;99.90;;;;;;6243100;23;20419;-72
2022/05/14 06:48:25;;;;;;;3.00;1.33;;;14.50;99.90;;;;;;6242381;23;20435;-72
2022/05/14 06:50:54;;;;;;;3.03;2.57;;;14.60;99.90;;;;;;6243082;23;20744;-72
2022/05/14 06:53:22;;;;;;;6.83;1.70;;;14.70;99.90;;;;;;6242631;23;20440;-72
2022/05/14 06:55:53;;;;;;;2.27;1.60;;;14.80;99.90;;;;;;6243114;23;20446;-72
2022/05/14 06:58:24;;;;;;;1.90;1.43;;;14.90;99.90;;;;;;6242742;23;20701;-73
2022/05/14 07:00:51;;;;;;;3.83;2.27;;;15.10;99.90;;;;;;6243683;23;20404;-73
2022/05/14 07:08:48;;;;;;;1.70;1.60;;;15.50;99.90;;;;;;6244097;22;21014;-72
2022/05/14 07:11:15;;;;;;;2.70;1.70;;;15.70;99.90;;;;;;6244974;23;20445;-72
2022/05/14 07:13:41;;;;;;;1.77;1.67;;;15.80;99.90;;;;;;6244799;23;20445;-73
2022/05/14 07:16:08;;;;;;;2.63;1.70;;;15.90;99.90;;;;;;6244802;23;20423;-72
2022/05/14 07:18:35;;;;;;;3.00;1.53;;;16.00;99.90;;;;;;6244231;23;20439;-73
2022/05/14 07:21:03;;;;;;;1.73;1.50;;;16.00;99.90;;;;;;6244466;23;20915;-73
2022/05/14 07:23:30;;;;;;;2.40;1.63;;;16.10;99.90;;;;;;6245072;23;20423;-73
2022/05/14 07:26:02;;;;;;;2.43;1.70;;;16.30;99.90;;;;;;6244872;23;20426;-73
2022/05/14 07:28:29;;;;;;;3.57;1.50;;;16.50;99.90;;;;;;6243604;23;20990;-73
2022/05/14 07:30:55;;;;;;;2.93;1.50;;;16.60;99.90;;;;;;6245038;23;20442;-72
2022/05/14 07:33:22;;;;;;;2.60;1.60;;;16.60;99.90;;;;;;6244799;23;20772;-72
2022/05/14 07:35:49;;;;;;;2.10;1.30;;;16.70;99.50;;;;;;6245280;23;20419;-72
2022/05/14 07:38:17;;;;;;;2.00;1.57;;;16.80;98.60;;;;;;6244175;23;20457;-73
2022/05/14 07:40:44;;;;;;;2.80;1.33;;;16.90;99.90;;;;;;6245709;23;20419;-73
2022/05/14 07:43:17;;;;;;;2.43;1.67;;;17.00;99.50;;;;;;6244997;23;20419;-73
2022/05/14 07:45:46;;;;;;;2.27;1.50;;;17.00;99.90;;;;;;6245056;23;20403;-73
2022/05/14 07:48:18;;;;;;;3.50;1.30;;;17.10;99.90;;;;;;6243574;23;20446;-72
2022/05/14 07:50:45;;;;;;;2.13;1.80;;;17.20;99.90;;;;;;6244760;23;20488;-73
2022/05/14 07:53:14;;;;;;;3.10;1.53;;;17.30;99.90;;;;;;6244546;23;20450;-72
2022/05/14 07:55:43;;;;;;;2.77;1.57;;;17.40;99.20;;;;;;6244670;23;20420;-73
2022/05/14 07:58:10;;;;;;;1.93;1.37;;;17.60;99.90;;;;;;6243952;23;20446;-73
2022/05/14 08:00:37;;;;;;;2.47;1.70;;;17.70;99.90;;;;;;6244654;23;20426;-73
2022/05/14 08:03:05;;;;;;;3.23;1.60;;;17.90;99.90;;;;;;6244541;23;20461;-73
2022/05/14 08:05:33;;;;;;;4.37;1.80;;;18.10;99.90;;;;;;6244511;23;20419;-73
2022/05/14 08:07:59;;;;;;;4.30;1.97;;;18.30;99.90;;;;;;6242994;22;20748;-73
2022/05/14 08:10:26;;;;;;;1.97;1.70;;;18.30;98.20;;;;;;6244453;23;20495;-73
2022/05/14 08:12:55;;;;;;;2.80;1.27;;;18.40;99.10;;;;;;6243285;23;20823;-73
2022/05/14 08:15:25;;;;;;;2.17;1.27;;;18.50;98.20;;;;;;6243387;23;20415;-73
2022/05/14 08:17:51;;;;;;;4.60;1.53;;;18.50;97.50;;;;;;6243811;23;20845;-73
2022/05/14 08:20:18;;;;;;;8.97;1.53;;;18.60;98.60;;;;;;6243966;23;20420;-73
2022/05/14 08:25:31;;;;;;;2.10;1.50;;;18.60;96.70;;;;;;6253865;23;20442;-72
2022/05/14 08:27:59;;;;;;;3.80;1.60;;;18.70;98.10;;;;;;6242630;23;20952;-73
2022/05/14 08:30:29;;;;;;;4.30;1.77;;;18.80;97.60;;;;;;6242717;23;20423;-72
2022/05/14 08:32:56;;;;;;;5.53;1.87;;;18.90;98.50;;;;;;6243383;23;20450;-73
2022/05/14 08:35:25;;;;;;;3.23;1.70;;;19.10;98.00;;;;;;6241514;23;20420;-72
2022/05/14 08:37:56;;;;;;;4.23;1.63;;;19.20;98.50;;;;;;6243432;23;20437;-72
2022/05/14 08:40:28;;;;;;;3.30;1.73;;;19.40;97.20;;;;;;6253140;23;20442;-73
2022/05/14 08:43:01;;;;;;;3.10;1.67;;;19.50;95.90;;;;;;6242763;23;20422;-73
2022/05/14 08:45:30;;;;;;;3.90;1.80;;;19.70;96.90;;;;;;6253287;23;20423;-74
2022/05/14 08:47:59;;;;;;;1.70;1.60;;;19.80;95.00;;;;;;6242204;23;20446;-73
2022/05/14 08:50:30;;;;;;;2.40;1.70;;;19.80;94.70;;;;;;6243067;23;20415;-72
2022/05/14 08:53:01;;;;;;;2.00;1.40;;;20.00;96.60;;;;;;6242558;23;20436;-72
2022/05/14 08:55:38;;;;;;;6.10;2.03;;;20.40;95.00;;;;;;6242866;23;20420;-73
2022/05/14 08:58:14;;;;;;;2.93;1.70;;;20.40;95.20;;;;;;6242879;23;20443;-75
2022/05/14 09:00:43;;;;;;;2.90;2.03;;;20.40;96.80;;;;;;6243554;23;20407;-73
2022/05/14 09:03:10;;;;;;;5.03;1.70;;;20.80;96.80;;;;;;6243131;23;20451;-72
2022/05/14 09:05:39;;;;;;;2.10;1.77;;;21.10;95.80;;;;;;6242001;23;21210;-71
2022/05/14 09:08:07;;;;;;;2.40;1.70;;;21.30;94.60;;;;;;6241631;22;20502;-72
2022/05/14 09:10:38;;;;;;;4.73;1.97;;;21.70;95.70;;;;;;6242276;23;20455;-72
2022/05/14 09:13:13;;;;;;;3.50;1.50;;;22.10;94.90;;;;;;6240781;23;20432;-72
2022/05/14 09:15:46;;;;;;;6.00;1.87;;;22.70;94.90;;;;;;6242684;23;20407;-72
2022/05/14 09:18:15;;;;;;;5.53;1.93;;;23.10;92.40;;;;;;6241620;23;20447;-72
2022/05/14 09:20:44;;;;;;;2.33;1.60;;;23.40;94.10;;;;;;6242767;23;20514;-73
2022/05/14 09:23:11;;;;;;;5.47;1.90;;;23.60;93.60;;;;;;6242712;23;20418;-73
2022/05/14 09:25:42;;;;;;;1.40;1.30;;;23.90;92.90;;;;;;6252911;23;20421;-72
2022/05/14 09:28:13;;;;;;;2.93;1.60;;;24.40;92.90;;;;;;6241198;23;20432;-72
2022/05/14 09:30:43;;;;;;;3.00;1.90;;;24.80;92.50;;;;;;6241626;23;20438;-72
2022/05/14 09:33:22;;;;;;;2.47;1.60;;;25.10;91.30;;;;;;6242941;23;20522;-72
2022/05/14 09:35:56;;;;;;;4.37;2.00;;;25.30;91.70;;;;;;6241952;23;20404;-72
2022/05/14 09:38:23;;;;;;;2.90;2.00;;;25.60;92.30;;;;;;6242361;23;20856;-74
2022/05/14 09:40:51;;;;;;;4.70;1.80;;;25.90;90.80;;;;;;6242411;23;20422;-72
2022/05/14 09:43:31;;;;;;;2.73;1.90;;;26.10;91.70;;;;;;6239655;23;20499;-73
2022/05/14 09:46:01;;;;;;;4.70;2.00;;;26.30;91.20;;;;;;6242292;23;20399;-72
2022/05/14 09:48:33;;;;;;;5.63;1.80;;;26.00;85.70;;;;;;6241946;23;20444;-72
2022/05/14 09:51:01;;;;;;;2.07;1.47;;;25.40;85.70;;;;;;6242082;23;20410;-73
2022/05/14 09:53:30;;;;;;;2.43;1.60;;;25.50;85.10;;;;;;6242354;23;20443;-72
2022/05/14 09:56:24;;;;;;;4.20;1.83;;;25.50;85.80;;;;;;6241389;23;20812;-72
2022/05/14 09:59:04;;;;;;;2.20;1.73;;;25.70;81.60;;;;;;6227517;23;20439;-72
2022/05/14 10:01:34;;;;;;;2.20;1.60;;;26.00;84.40;;;;;;6242496;23;20722;-73
2022/05/14 10:04:14;;;;;;;2.00;1.70;;;26.30;84.90;;;;;;6241843;23;20434;-72
2022/05/14 10:06:45;;;;;;;2.60;1.77;;;26.70;86.00;;;;;;6242243;23;20479;-71
2022/05/14 10:09:22;;;;;;;2.63;1.67;;;27.00;83.20;;;;;;6236546;22;20499;-72
2022/05/14 10:11:55;;;;;;;1.73;1.30;;;27.30;78.20;;;;;;6241494;23;20405;-71
2022/05/14 10:14:36;;;;;;;4.20;1.87;;;27.10;78.90;;;;;;6242553;23;20427;-72
2022/05/14 10:17:19;;;;;;;2.27;1.60;;;27.30;82.20;;;;;;6240989;23;20406;-72
2022/05/14 10:20:06;;;;;;;2.37;1.40;;;27.30;84.70;;;;;;6241345;23;20439;-72
2022/05/14 10:28:21;;;;;;;2.77;1.50;;;27.80;81.40;;;;;;6251751;23;20426;-70
2022/05/14 10:31:01;;;;;;;2.50;1.40;;;27.80;80.60;;;;;;6241955;23;20399;-70
2022/05/14 10:33:30;;;;;;;3.83;1.50;;;27.70;79.00;;;;;;6242244;23;20435;-70
2022/05/14 10:36:03;;;;;;;2.07;1.33;;;27.70;75.70;;;;;;6242216;23;20469;-70
2022/05/14 10:38:34;;;;;;;2.67;1.80;;;27.80;76.40;;;;;;6241253;23;20976;-69
2022/05/14 10:41:05;;;;;;;4.37;1.70;;;28.00;73.50;;;;;;6242175;23;20400;-70
2022/05/14 10:43:39;;;;;;;2.17;1.40;;;27.90;77.00;;;;;;6242153;23;20415;-70
2022/05/14 10:46:11;;;;;;;2.80;1.70;;;27.90;79.20;;;;;;6242977;23;20408;-70
2022/05/14 10:48:47;;;;;;;2.83;1.23;;;27.70;78.20;;;;;;6241678;23;20439;-70
2022/05/14 10:51:25;;;;;;;4.23;1.40;;;27.50;72.40;;;;;;6244833;23;20410;-70
2022/05/14 10:53:53;;;;;;;1.90;1.30;;;27.10;70.90;;;;;;6242991;23;20431;-69
2022/05/14 10:56:25;;;;;;;3.47;1.53;;;27.00;73.40;;;;;;6242865;23;20423;-70
2022/05/14 10:59:02;;;;;;;2.90;1.50;;;27.10;76.50;;;;;;6242400;23;20439;-70
2022/05/14 11:01:34;;;;;;;2.03;1.60;;;27.50;78.00;;;;;;6242358;23;20403;-70
2022/05/14 11:04:16;;;;;;;5.63;1.90;;;27.80;76.10;;;;;;6241952;23;20403;-72
2022/05/14 11:06:55;;;;;;;2.17;1.50;;;28.30;80.10;;;;;;6242250;23;21157;-70
2022/05/14 11:09:25;;;;;;;3.17;1.63;;;28.80;80.20;;;;;;6241575;22;20454;-70
2022/05/14 11:11:57;;;;;;;3.80;1.70;;;29.00;82.70;;;;;;6242927;23;20427;-70
2022/05/14 11:14:24;;;;;;;4.13;2.10;;;29.40;81.50;;;;;;6242451;23;20488;-70
2022/05/14 11:16:53;;;;;;;1.83;1.57;;;29.50;83.00;;;;;;6242871;23;20416;-70
2022/05/14 11:19:28;;;;;;;2.80;1.67;;;29.70;78.90;;;;;;6241438;23;20444;-69
2022/05/14 11:21:56;;;;;;;2.53;2.10;;;29.50;81.00;;;;;;6241747;23;20759;-70
2022/05/14 11:26:53;;;;;;;3.03;1.63;;;29.20;79.90;;;;;;6243255;23;20411;-69
2022/05/14 11:29:25;;;;;;;12.70;2.60;;;29.00;78.80;;;;;;6243135;23;20926;-69
2022/05/14 11:32:05;;;;;;;3.27;1.97;;;28.50;79.70;;;;;;6243635;23;20404;-68
2022/05/14 11:34:32;;;;;;;2.10;1.53;;;28.30;81.00;;;;;;6243679;23;20428;-69
2022/05/14 11:37:02;;;;;;;2.90;1.90;;;28.40;80.50;;;;;;6244034;23;20721;-69
2022/05/14 11:39:36;;;;;;;3.20;1.40;;;28.30;82.20;;;;;;6242358;23;20523;-71
2022/05/14 11:42:13;;;;;;;3.67;1.77;;;28.60;82.40;;;;;;6243397;23;20869;-69
2022/05/14 11:44:45;;;;;;;2.60;1.50;;;28.90;79.10;;;;;;6243522;23;20411;-69
2022/05/14 11:47:39;;;;;;;3.67;1.90;;;28.80;76.90;;;;;;6243592;23;20744;-69
2022/05/14 11:50:07;;;;;;;3.30;1.77;;;28.80;77.80;;;;;;6242568;23;20435;-69
2022/05/14 11:52:41;;;;;;;4.07;1.50;;;28.80;78.50;;;;;;6243715;23;20420;-69
2022/05/14 11:55:14;;;;;;;4.50;1.67;;;28.90;80.10;;;;;;6245907;23;20423;-69
2022/05/14 11:57:45;;;;;;;2.93;1.40;;;29.10;80.70;;;;;;6244776;23;20407;-68
2022/05/14 12:00:16;;;;;;;2.40;1.60;;;29.10;75.50;;;;;;6245558;23;20410;-68
2022/05/14 12:02:51;;;;;;;3.23;1.60;;;28.90;79.10;;;;;;6245836;23;20407;-68
2022/05/14 12:05:23;;;;;;;2.77;1.80;;;29.00;72.70;;;;;;6245924;23;20402;-69
2022/05/14 12:08:09;;;;;;;2.93;1.93;;;28.70;75.10;;;;;;6244853;23;20411;-68
2022/05/14 12:10:47;;;;;;;2.53;1.80;;;28.70;77.10;;;;;;6245890;23;20415;-69
2022/05/14 12:13:23;;;;;;;5.43;1.70;;;28.90;79.10;;;;;;6246011;23;20406;-69
2022/05/14 12:15:51;;;;;;;2.70;1.70;;;29.00;81.50;;;;;;6245662;23;20399;-70
2022/05/14 12:18:20;;;;;;;2.07;1.70;;;29.00;79.60;;;;;;6244836;23;21172;-69
2022/05/14 12:20:55;;;;;;;3.30;2.10;;;29.00;78.00;;;;;;6244333;23;20440;-69
2022/05/14 12:23:33;;;;;;;2.97;1.80;;;29.00;83.40;;;;;;6245425;23;20791;-70
2022/05/14 12:26:00;;;;;;;2.80;1.50;;;29.00;81.00;;;;;;6244936;22;20439;-69
2022/05/14 12:28:29;;;;;;;3.20;1.90;;;29.00;80.20;;;;;;6243600;23;20501;-69
2022/05/14 12:33:54;;;;;;;3.23;1.67;;;28.80;80.70;;;;;;6254688;23;20425;-70
2022/05/14 12:36:21;;;;;;;7.13;2.10;;;28.80;83.80;;;;;;6245153;23;20408;-69
2022/05/14 12:38:49;;;;;;;2.23;1.57;;;28.90;80.70;;;;;;6244127;23;20436;-69
2022/05/14 12:41:22;;;;;;;2.87;1.67;;;28.90;81.80;;;;;;6244033;23;20751;-69
2022/05/14 12:43:49;;;;;;;4.63;2.00;;;28.90;79.80;;;;;;6245142;23;20402;-68
2022/05/14 12:46:19;;;;;;;2.23;1.60;;;28.80;82.10;;;;;;6244228;23;20447;-69
2022/05/14 12:48:48;;;;;;;3.87;1.50;;;29.00;82.30;;;;;;6244753;23;20444;-68
2022/05/14 12:51:21;;;;;;;3.60;1.90;;;29.10;82.80;;;;;;6244716;23;20417;-69
2022/05/14 12:53:49;;;;;;;2.70;1.73;;;29.00;81.30;;;;;;6255356;23;20479;-68
2022/05/14 12:56:16;;;;;;;3.43;1.70;;;28.80;78.40;;;;;;6245299;23;20448;-69
2022/05/14 12:58:44;;;;;;;4.70;1.77;;;28.70;79.50;;;;;;6243908;23;20450;-69
2022/05/14 13:01:12;;;;;;;3.90;1.90;;;28.70;80.20;;;;;;6245577;23;20428;-69
2022/05/14 13:03:42;;;;;;;2.23;1.70;;;28.90;79.90;;;;;;6245057;23;20419;-68
2022/05/14 13:06:16;;;;;;;2.43;1.53;;;28.90;79.90;;;;;;6245116;23;20505;-69
2022/05/14 13:08:48;;;;;;;2.50;2.00;;;28.90;78.20;;;;;;6253808;23;20446;-69
2022/05/14 13:11:18;;;;;;;2.13;1.70;;;29.10;81.50;;;;;;6244143;23;20412;-68
2022/05/14 13:13:48;;;;;;;2.67;1.60;;;29.20;79.80;;;;;;6245094;23;20451;-69
2022/05/14 13:16:17;;;;;;;5.73;2.13;;;29.10;78.80;;;;;;6243719;23;20428;-69
2022/05/14 13:18:46;;;;;;;2.37;1.50;;;28.60;78.30;;;;;;6243850;23;20445;-69
2022/05/14 13:21:20;;;;;;;2.20;1.40;;;28.20;81.60;;;;;;6245618;23;20421;-69
2022/05/14 13:24:00;;;;;;;2.57;1.63;;;28.30;80.70;;;;;;6245077;23;20419;-70
2022/05/14 13:26:34;;;;;;;2.63;1.90;;;28.50;79.20;;;;;;6244641;22;20432;-69
2022/05/14 13:29:14;;;;;;;3.90;1.80;;;28.60;83.30;;;;;;6243732;23;20447;-70
2022/05/14 13:31:42;;;;;;;3.30;1.40;;;28.80;78.40;;;;;;6244963;23;21019;-70